Time;durP1;ratioP1;P1;durP2;ratioP2;P2;SDS_P1;SDS_P2;PMS_P1;PMS_P2;Temp;Humidity;BMP_temperature;BMP_pressure;BME280_temperature;BME280_humidity;BME280_pressure;Samples;Min_cycle;Max_cycle;Signal;HPM_P1;HPM_P2
2022/01/04 00:00:56;;;;;;;12.97;1.70;;;;;;;21.58;59.02;98277.41;7314919;19;152979;-33
2022/01/04 00:03:22;;;;;;;14.30;1.95;;;;;;;21.55;59.49;98265.47;7316091;19;135489;-33
2022/01/04 00:05:47;;;;;;;19.43;2.93;;;;;;;21.55;59.84;98262.84;7314536;19;158711;-34
2022/01/04 00:08:13;;;;;;;14.43;1.93;;;;;;;21.56;58.01;98267.13;7315628;19;155845;-34
2022/01/04 00:10:38;;;;;;;10.67;1.63;;;;;;;21.47;59.09;98241.19;7314812;19;129416;-34
2022/01/04 00:13:23;;;;;;;4.75;1.00;;;;;;;21.52;59.07;98255.34;7315147;19;131779;-37
2022/01/04 00:15:55;;;;;;;26.17;4.43;;;;;;;21.53;60.17;98241.31;7316504;19;130964;-34
2022/01/04 00:18:21;;;;;;;13.38;1.88;;;;;;;21.52;59.81;98242.28;7316277;19;129139;-35
2022/01/04 00:20:47;;;;;;;13.00;2.13;;;;;;;21.54;58.44;98248.16;7313667;19;129263;-38
2022/01/04 00:23:13;;;;;;;12.90;1.90;;;;;;;21.53;59.81;98230.84;7316365;19;130052;-36
2022/01/04 00:25:39;;;;;;;15.07;2.10;;;;;;;21.51;59.81;98238.06;7314978;19;130491;-30
2022/01/04 00:28:07;;;;;;;10.65;1.45;;;;;;;21.51;59.36;98230.19;7313617;19;128853;-37
2022/01/04 00:30:33;;;;;;;13.02;1.58;;;;;;;21.53;59.03;98241.31;7313609;19;128854;-37
2022/01/04 00:32:59;;;;;;;12.65;1.63;;;;;;;21.53;58.45;98236.09;7316578;19;130735;-35
2022/01/04 00:35:24;;;;;;;11.88;1.48;;;;;;;21.51;58.84;98235.44;7313692;19;159336;-32
2022/01/04 00:37:49;;;;;;;11.40;1.98;;;;;;;21.48;59.25;98217.47;7312974;19;154724;-35
2022/01/04 00:40:15;;;;;;;13.82;1.98;;;;;;;21.51;59.71;98213.69;7313807;19;129049;-40
2022/01/04 00:42:40;;;;;;;14.52;2.25;;;;;;;21.51;59.95;98209.28;7313380;19;130218;-34
2022/01/04 00:45:06;;;;;;;11.38;1.67;;;;;;;21.51;58.73;98206.66;7314277;19;158146;-34
2022/01/04 00:50:28;;;;;;;10.07;1.25;;;;;;;21.51;58.37;98201.44;7309093;19;129349;-35
2022/01/04 00:52:53;;;;;;;14.85;2.28;;;;;;;21.40;59.46;98186.13;7314225;19;129214;-38
2022/01/04 00:55:18;;;;;;;14.77;1.92;;;;;;;21.46;59.17;98193.28;7313861;19;139625;-32
2022/01/04 00:57:44;;;;;;;14.73;2.17;;;;;;;21.47;59.50;98205.38;7312998;19;129846;-32
2022/01/04 01:00:11;;;;;;;16.33;1.95;;;;;;;21.49;59.40;98187.72;7313493;19;129480;-39
2022/01/04 01:02:37;;;;;;;10.43;1.42;;;;;;;21.46;59.24;98171.56;7312215;19;130085;-37
2022/01/04 01:05:03;;;;;;;8.50;1.15;;;;;;;21.48;59.24;98180.06;7314372;19;130306;-33
2022/01/04 01:07:29;;;;;;;13.73;2.05;;;;;;;21.48;59.03;98169.59;7314428;19;129410;-33
2022/01/04 01:10:20;;;;;;;13.15;1.88;;;;;;;21.47;59.02;98171.38;7312069;19;154185;-36
2022/01/04 01:12:39;;;;;;;14.77;2.20;;;;;;;21.48;59.63;98164.34;7313147;19;130303;-36
2022/01/04 01:15:06;;;;;;;11.93;1.55;;;;;;;21.50;59.56;98162.38;7312125;19;158413;-35
2022/01/04 01:17:31;;;;;;;;;;;;;;;21.45;60.23;98149.81;7314662;19;129124;-40
2022/01/04 01:19:58;;;;;;;12.60;1.98;;;;;;;21.51;59.36;98162.22;7313940;19;129341;-33
2022/01/04 01:22:23;;;;;;;11.53;1.40;;;;;;;21.47;59.62;98147.84;7312581;19;130098;-36
2022/01/04 01:24:48;;;;;;;15.23;2.42;;;;;;;21.49;59.25;98153.72;7312942;19;157815;-36
2022/01/04 01:27:13;;;;;;;14.23;1.95;;;;;;;21.48;58.95;98149.50;7312811;19;155341;-30
2022/01/04 01:29:39;;;;;;;17.58;2.13;;;;;;;21.49;59.68;98138.03;7312108;19;154720;-34
2022/01/04 01:32:04;;;;;;;5.10;0.90;;;;;;;21.39;58.75;98124.38;7313158;19;158805;-41
2022/01/04 01:34:30;;;;;;;13.10;1.88;;;;;;;21.48;60.27;98123.34;7314777;19;131025;-31
2022/01/04 01:36:55;;;;;;;5.50;1.00;;;;;;;21.52;58.99;98119.38;7312452;19;153488;-33
2022/01/04 01:39:20;;;;;;;15.73;1.92;;;;;;;21.42;59.24;98103.09;7309478;19;138545;-39
2022/01/04 01:41:46;;;;;;;14.70;2.28;;;;;;;21.50;58.75;98120.56;7310712;19;139261;-32
2022/01/04 01:44:11;;;;;;;11.15;1.70;;;;;;;21.51;59.01;98114.31;7312746;19;130292;-31
2022/01/04 01:46:36;;;;;;;10.35;1.40;;;;;;;21.49;58.95;98121.53;7313084;19;146387;-38
2022/01/04 01:49:02;;;;;;;11.27;1.77;;;;;;;21.49;59.79;98109.28;7310803;19;154942;-38
2022/01/04 01:51:28;;;;;;;15.20;1.95;;;;;;;21.50;58.77;98112.72;7313405;19;130647;-32
2022/01/04 01:53:54;;;;;;;25.42;4.00;;;;;;;21.49;58.76;98106.66;7311809;19;129352;-36
2022/01/04 01:56:20;;;;;;;12.75;1.80;;;;;;;21.45;60.13;98105.38;7312955;19;128884;-35
2022/01/04 01:58:45;;;;;;;14.23;2.08;;;;;;;21.48;59.11;98101.59;7312138;19;129599;-38
2022/01/04 02:01:11;;;;;;;17.27;2.30;;;;;;;21.50;59.08;98100.44;7311184;19;151424;-35
2022/01/04 02:03:37;;;;;;;13.48;1.85;;;;;;;21.47;59.89;98100.78;7312508;19;130892;-36
2022/01/04 02:06:03;;;;;;;9.50;1.20;;;;;;;21.47;59.45;98100.00;7312215;19;129145;-32
2022/01/04 02:08:28;;;;;;;15.30;1.88;;;;;;;21.36;59.68;98077.69;7313957;19;128952;-34
2022/01/04 02:10:57;;;;;;;11.30;1.48;;;;;;;21.46;59.41;98093.13;7308938;19;129710;-33
2022/01/04 02:13:24;;;;;;;13.80;2.03;;;;;;;21.45;59.20;98092.28;7312034;19;130966;-34
2022/01/04 02:15:50;;;;;;;16.92;2.25;;;;;;;21.48;58.26;98085.91;7310655;19;129295;-34
2022/01/04 02:18:15;;;;;;;16.15;2.38;;;;;;;21.46;58.61;98080.03;7312941;19;129354;-35
2022/01/04 02:20:40;;;;;;;14.47;2.00;;;;;;;21.46;58.40;98083.47;7308952;19;158648;-33
2022/01/04 02:23:05;;;;;;;6.43;0.97;;;;;;;21.46;59.11;98082.66;7308863;19;158998;-39
2022/01/04 02:25:31;;;;;;;14.53;1.87;;;;;;;21.41;59.55;98067.50;7309166;19;154284;-35
2022/01/04 02:27:56;;;;;;;14.37;1.90;;;;;;;21.44;59.68;98066.31;7310791;19;154241;-36
2022/01/04 02:30:22;;;;;;;11.25;1.27;;;;;;;21.38;59.34;98065.25;7308795;19;159299;-35
2022/01/04 02:32:48;;;;;;;16.48;2.33;;;;;;;21.43;58.88;98064.72;7311413;19;129475;-34
2022/01/04 02:35:15;;;;;;;13.23;1.93;;;;;;;21.44;59.13;98059.31;7312213;19;128965;-32
2022/01/04 02:37:41;;;;;;;15.00;1.88;;;;;;;21.45;58.93;98053.06;7311676;19;129297;-36
2022/01/04 02:40:07;;;;;;;15.95;1.98;;;;;;;21.44;59.13;98054.06;7310598;19;130755;-39
2022/01/04 02:42:32;;;;;;;11.20;1.30;;;;;;;21.46;59.45;98053.91;7311207;19;131001;-36
2022/01/04 02:45:00;;;;;;;7.55;1.25;;;;;;;21.46;59.22;98059.94;7312184;19;129099;-32
2022/01/04 02:47:27;;;;;;;26.08;3.08;;;;;;;21.47;58.83;98048.50;7310147;19;129576;-35
2022/01/04 02:49:52;;;;;;;15.43;2.05;;;;;;;21.44;59.75;98045.41;7308222;19;130167;-35
2022/01/04 02:52:17;;;;;;;11.50;1.58;;;;;;;21.47;60.00;98047.69;7311876;19;129417;-34
2022/01/04 02:54:43;;;;;;;13.13;1.98;;;;;;;21.46;59.05;98031.19;7309009;19;154345;-37
2022/01/04 02:57:08;;;;;;;12.27;1.52;;;;;;;21.35;59.46;98018.53;7310549;19;136228;-34
2022/01/04 02:59:34;;;;;;;12.55;1.52;;;;;;;21.44;59.12;98032.34;7308844;19;154708;-34
2022/01/04 03:01:59;;;;;;;14.10;1.98;;;;;;;21.43;60.00;98023.69;7309521;19;130499;-37
2022/01/04 03:04:24;;;;;;;16.02;1.95;;;;;;;21.42;60.06;98019.44;7310251;19;129279;-33
2022/01/04 03:06:49;;;;;;;14.63;2.37;;;;;;;21.41;59.63;98023.06;7309481;19;142696;-35
2022/01/04 03:09:15;;;;;;;7.30;0.98;;;;;;;21.43;59.46;98015.88;7308969;19;130061;-40
2022/01/04 03:11:40;;;;;;;14.02;1.98;;;;;;;21.41;58.98;98012.59;7311145;19;129476;-33
2022/01/04 03:14:06;;;;;;;11.85;1.50;;;;;;;21.43;59.24;98008.03;7309531;19;152691;-38
2022/01/04 03:16:31;;;;;;;10.93;1.48;;;;;;;21.31;59.27;97998.97;7309321;19;129364;-40
2022/01/04 03:19:03;;;;;;;18.87;2.73;;;;;;;21.40;60.55;98005.72;7308033;19;158623;-33
2022/01/04 03:21:32;;;;;;;8.95;1.20;;;;;;;21.42;58.81;98006.38;7310947;19;129504;-32
2022/01/04 03:23:57;;;;;;;28.02;3.63;;;;;;;21.43;58.82;98005.41;7310907;19;129334;-36
2022/01/04 03:26:24;;;;;;;14.10;1.77;;;;;;;21.41;60.06;97999.53;7310300;19;129078;-36
2022/01/04 03:28:49;;;;;;;17.55;2.42;;;;;;;21.42;59.58;98002.97;7309742;19;131302;-37
2022/01/04 03:31:14;;;;;;;18.50;2.90;;;;;;;21.41;59.72;98004.75;7308249;19;156964;-33
2022/01/04 03:33:40;;;;;;;8.82;1.27;;;;;;;21.30;60.56;97978.22;7310013;19;128932;-38
2022/01/04 03:36:05;;;;;;;8.68;1.17;;;;;;;21.40;59.01;97995.28;7309575;19;129798;-36
2022/01/04 03:38:31;;;;;;;10.18;1.40;;;;;;;21.40;59.83;97984.81;7310255;19;139708;-33
2022/01/04 03:40:56;;;;;;;12.73;1.70;;;;;;;21.36;59.88;97973.09;7306145;19;150051;-37
2022/01/04 03:43:22;;;;;;;15.00;1.95;;;;;;;21.32;59.65;97961.38;7305491;19;155208;-37
2022/01/04 03:45:50;;;;;;;16.55;2.50;;;;;;;21.39;58.96;97962.28;7308773;19;138179;-35
2022/01/04 03:48:15;;;;;;;11.02;1.58;;;;;;;21.41;59.28;97959.50;7309066;19;129155;-33
2022/01/04 03:50:42;;;;;;;14.95;1.95;;;;;;;21.40;59.97;97947.44;7305211;19;158417;-37
2022/01/04 03:53:07;;;;;;;11.57;1.58;;;;;;;21.44;59.53;97944.28;7309633;19;128883;-37
2022/01/04 03:55:33;;;;;;;20.42;2.85;;;;;;;21.11;59.64;97927.25;7308658;19;128851;-37
2022/01/04 03:57:58;;;;;;;11.50;1.58;;;;;;;20.75;59.39;97928.84;7309234;19;129189;-35
2022/01/04 04:00:23;;;;;;;15.73;2.08;;;;;;;20.74;59.76;97922.78;7307342;19;129321;-35
2022/01/04 04:02:49;;;;;;;18.95;2.53;;;;;;;20.88;59.22;97923.84;7313190;19;129338;-37
2022/01/04 04:05:15;;;;;;;15.45;2.05;;;;;;;21.04;58.79;97926.34;7316809;19;129270;-33
2022/01/04 04:07:41;;;;;;;12.33;1.93;;;;;;;21.17;58.39;97916.09;7315268;19;129085;-34
2022/01/04 04:10:06;;;;;;;10.45;1.40;;;;;;;21.33;57.69;97915.97;7315004;19;129445;-39
2022/01/04 04:12:31;;;;;;;9.38;1.23;;;;;;;21.47;57.39;97912.53;7316793;19;129315;-33
2022/01/04 04:14:58;;;;;;;13.70;1.90;;;;;;;21.53;57.44;97885.69;7314351;19;153921;-38
2022/01/04 04:17:24;;;;;;;13.70;1.60;;;;;;;21.72;56.58;97892.97;7315527;19;131242;-33
2022/01/04 04:19:49;;;;;;;11.93;1.80;;;;;;;21.75;56.50;97889.97;7314902;19;129480;-39
2022/01/04 04:22:15;;;;;;;14.73;2.28;;;;;;;21.82;56.68;97880.44;7315352;19;130787;-32
2022/01/04 04:24:41;;;;;;;13.95;2.03;;;;;;;21.88;56.76;97882.31;7316490;19;129124;-31
2022/01/04 04:27:06;;;;;;;15.37;1.77;;;;;;;21.88;56.27;97884.16;7316444;19;130700;-36
2022/01/04 04:29:33;;;;;;;17.73;2.58;;;;;;;21.92;56.29;97875.75;7315345;19;130370;-35
2022/01/04 04:31:58;;;;;;;14.35;1.60;;;;;;;21.95;56.25;97875.38;7317019;19;128963;-35
2022/01/04 04:34:23;;;;;;;8.77;1.08;;;;;;;21.87;56.06;97856.34;7315080;19;154031;-33
2022/01/04 04:36:48;;;;;;;9.35;1.40;;;;;;;21.90;56.67;97862.03;7313672;19;158266;-36
2022/01/04 04:39:14;;;;;;;15.90;2.28;;;;;;;21.91;56.92;97862.84;7313231;19;158577;-36
2022/01/04 04:41:39;;;;;;;13.52;1.90;;;;;;;21.86;56.52;97865.22;7313374;19;155536;-37
2022/01/04 04:44:04;;;;;;;21.00;3.15;;;;;;;21.70;56.67;97834.00;7313502;19;153048;-40
2022/01/04 04:46:30;;;;;;;12.80;1.52;;;;;;;21.73;57.26;97844.09;7314368;19;130159;-37
2022/01/04 04:48:55;;;;;;;5.72;0.98;;;;;;;21.72;57.49;97838.03;7314196;19;129849;-33
2022/01/04 04:51:20;;;;;;;16.55;2.15;;;;;;;21.65;57.37;97831.91;7314832;19;131506;-33
2022/01/04 04:53:45;;;;;;;14.30;2.25;;;;;;;21.59;57.77;97830.03;7313071;19;155143;-33
2022/01/04 04:56:11;;;;;;;12.85;1.90;;;;;;;21.44;57.93;97818.78;7312328;19;158406;-33
2022/01/04 04:58:36;;;;;;;15.50;1.98;;;;;;;21.48;57.56;97824.47;7313805;19;130252;-36
2022/01/04 05:01:01;;;;;;;11.35;1.38;;;;;;;21.42;58.17;97830.44;7313988;19;140984;-32
2022/01/04 05:03:26;;;;;;;11.27;1.45;;;;;;;21.34;57.90;97826.09;7309791;19;154558;-36
2022/01/04 05:05:52;;;;;;;13.63;1.73;;;;;;;21.29;58.84;97831.03;7311581;19;158358;-34
2022/01/04 05:08:17;;;;;;;15.35;2.28;;;;;;;21.21;58.95;97828.53;7313688;19;158800;-37
2022/01/04 05:10:42;;;;;;;17.77;2.30;;;;;;;21.18;58.80;97823.66;7311293;19;155195;-33
2022/01/04 05:13:08;;;;;;;11.85;1.63;;;;;;;21.10;58.92;97815.91;7312015;19;153012;-37
2022/01/04 05:15:33;;;;;;;6.55;1.15;;;;;;;21.05;59.48;97807.78;7313031;19;129905;-37
2022/01/04 05:17:58;;;;;;;15.43;2.00;;;;;;;20.98;59.48;97806.88;7313782;19;129681;-33
2022/01/04 05:20:23;;;;;;;12.87;1.87;;;;;;;20.92;59.49;97802.34;7310928;19;154750;-34
2022/01/04 05:22:49;;;;;;;16.27;2.33;;;;;;;20.88;59.75;97797.63;7311018;19;154562;-32
2022/01/04 05:25:14;;;;;;;12.13;2.00;;;;;;;20.87;59.44;97788.19;7312570;19;129273;-31
2022/01/04 05:27:39;;;;;;;11.30;1.63;;;;;;;20.82;59.59;97788.72;7314891;19;129363;-35
2022/01/04 05:30:05;;;;;;;11.75;1.65;;;;;;;20.76;60.38;97776.38;7310096;19;154850;-35
2022/01/04 05:32:30;;;;;;;12.67;1.57;;;;;;;20.76;60.46;97780.81;7314403;19;129032;-35
2022/01/04 05:34:56;;;;;;;10.57;1.42;;;;;;;20.73;60.11;97784.56;7311965;19;158193;-36
2022/01/04 05:37:21;;;;;;;16.27;2.17;;;;;;;20.71;60.57;97770.88;7312643;19;129277;-33
2022/01/04 05:39:46;;;;;;;4.63;0.90;;;;;;;20.66;59.54;97778.44;7309989;19;154165;-32
2022/01/04 05:42:11;;;;;;;15.05;2.08;;;;;;;20.62;59.72;97764.94;7311319;19;154048;-34
2022/01/04 05:44:37;;;;;;;17.83;2.58;;;;;;;20.56;60.14;97752.56;7311642;19;148371;-38
2022/01/04 05:47:04;;;;;;;13.18;1.48;;;;;;;20.66;60.02;97766.19;7314205;19;130020;-33
2022/01/04 05:49:30;;;;;;;10.98;1.35;;;;;;;20.68;60.37;97764.22;7312680;19;131268;-38
2022/01/04 05:51:55;;;;;;;14.52;2.17;;;;;;;20.69;60.36;97749.38;7312425;19;154209;-37
2022/01/04 05:54:21;;;;;;;19.17;2.67;;;;;;;20.74;60.95;97747.03;7312842;19;130273;-38
2022/01/04 05:56:46;;;;;;;20.42;2.60;;;;;;;20.77;60.26;97745.84;7312511;19;143969;-38
2022/01/04 05:59:11;;;;;;;22.33;3.00;;;;;;;20.76;60.47;97739.03;7310759;19;155472;-39
2022/01/04 06:01:37;;;;;;;11.05;1.42;;;;;;;20.80;60.73;97743.69;7312022;19;150585;-37
2022/01/04 06:04:02;;;;;;;20.20;3.30;;;;;;;20.86;60.56;97729.91;7313291;19;130232;-37
2022/01/04 06:06:27;;;;;;;12.15;1.55;;;;;;;20.91;60.73;97734.63;7312658;19;129301;-38
2022/01/04 06:08:53;;;;;;;14.97;2.07;;;;;;;20.97;60.12;97731.28;7310861;19;154526;-37
2022/01/04 06:16:46;;;;;;;11.15;1.63;;;;;;;21.06;61.16;97698.84;7313052;19;129039;-37
2022/01/04 06:19:11;;;;;;;14.23;2.08;;;;;;;21.08;61.06;97691.66;7312433;19;130520;-39
2022/01/04 06:21:37;;;;;;;16.98;2.03;;;;;;;21.13;60.38;97682.28;7312743;19;133330;-37
2022/01/04 06:24:02;;;;;;;26.77;4.20;;;;;;;21.13;60.50;97679.66;7287652;19;130565;-38
2022/01/04 06:26:28;;;;;;;37.35;6.15;;;;;;;21.10;60.97;97666.97;7277640;19;130487;-35
2022/01/04 06:28:53;;;;;;;11.05;1.73;;;;;;;21.27;60.45;97680.63;7312645;19;129000;-37
2022/01/04 06:31:18;;;;;;;15.00;2.05;;;;;;;21.35;60.63;97678.72;7312254;19;146885;-38
2022/01/04 06:33:44;;;;;;;14.10;2.25;;;;;;;21.28;60.11;97670.00;7311052;19;138627;-36
2022/01/04 06:36:09;;;;;;;10.45;1.55;;;;;;;21.22;60.42;97659.47;7310387;19;158591;-37
2022/01/04 06:38:34;;;;;;;2.95;0.45;;;;;;;21.14;60.36;97649.91;7310472;19;155423;-37
2022/01/04 06:40:59;;;;;;;10.07;1.30;;;;;;;21.21;59.73;97650.81;7312264;19;152957;-35
2022/01/04 06:43:25;;;;;;;12.38;1.60;;;;;;;21.11;60.56;97655.50;7310851;19;136869;-37
2022/01/04 06:45:50;;;;;;;27.55;4.28;;;;;;;21.02;59.77;97645.34;7310144;19;158588;-36
2022/01/04 06:48:15;;;;;;;13.60;1.80;;;;;;;20.93;59.93;97643.78;7302837;19;154347;-36
2022/01/04 06:50:40;;;;;;;7.40;1.13;;;;;;;20.81;60.05;97632.22;7310585;19;154406;-39
2022/01/04 06:53:06;;;;;;;16.20;2.08;;;;;;;20.77;60.27;97620.50;7312228;19;159169;-37
2022/01/04 06:55:31;;;;;;;15.52;1.92;;;;;;;20.73;59.81;97614.81;7310632;19;159490;-37
2022/01/04 06:57:56;;;;;;;12.57;1.75;;;;;;;20.68;60.61;97609.34;7312067;19;155050;-38
2022/01/04 07:00:21;;;;;;;10.98;1.38;;;;;;;20.64;59.98;97608.09;7310793;19;153968;-39
2022/01/04 07:02:47;;;;;;;50.25;8.70;;;;;;;20.61;60.86;97600.59;7304819;19;130069;-37
2022/01/04 07:05:12;;;;;;;24.17;3.33;;;;;;;20.60;60.84;97599.00;7312434;19;132998;-39
2022/01/04 07:07:38;;;;;;;49.88;7.07;;;;;;;20.44;60.32;97566.06;7309186;19;129538;-41
2022/01/04 07:10:03;;;;;;;16.17;2.30;;;;;;;20.58;60.78;97593.16;7305226;19;154639;-37
2022/01/04 07:12:28;;;;;;;8.30;1.25;;;;;;;20.58;60.39;97586.13;7310030;19;129755;-34
2022/01/04 07:14:54;;;;;;;13.17;1.93;;;;;;;20.59;60.14;97582.53;7305898;19;158373;-32
2022/01/04 07:17:19;;;;;;;16.37;2.13;;;;;;;20.60;60.29;97578.13;7304237;19;153350;-36
2022/01/04 07:19:46;;;;;;;16.40;2.00;;;;;;;20.63;60.29;97581.19;7309651;19;148540;-31
2022/01/04 07:22:11;;;;;;;;;;;;;;;20.66;60.53;97566.94;7300697;19;130105;-38
2022/01/04 07:24:36;;;;;;;13.13;1.90;;;;;;;20.72;60.13;97558.38;7308546;19;157583;-33
2022/01/04 07:27:02;;;;;;;10.53;1.30;;;;;;;20.73;59.87;97573.06;7304818;19;154511;-33
2022/01/04 07:29:27;;;;;;;6.53;0.90;;;;;;;20.74;60.16;97566.84;7304070;19;129206;-36
2022/01/04 07:31:52;;;;;;;53.73;7.93;;;;;;;20.80;59.70;97558.28;7303633;19;157286;-31
2022/01/04 07:34:17;;;;;;;14.63;2.07;;;;;;;20.82;59.51;97556.28;7299095;19;158552;-35
2022/01/04 07:36:43;;;;;;;17.97;2.47;;;;;;;20.83;59.43;97563.13;7314023;19;151805;-34
2022/01/04 07:39:08;;;;;;;18.70;2.50;;;;;;;20.79;59.79;97556.66;7303331;19;154010;-37
2022/01/04 07:41:34;;;;;;;16.17;1.95;;;;;;;20.80;59.81;97560.88;7317278;19;130199;-36
2022/01/04 07:43:59;;;;;;;16.97;2.67;;;;;;;20.79;59.79;97550.63;7308289;19;131300;-36
2022/01/04 07:46:25;;;;;;;10.23;1.17;;;;;;;20.74;60.01;97544.16;7311303;19;129395;-32
2022/01/04 07:48:51;;;;;;;15.50;2.00;;;;;;;20.74;59.87;97540.75;7308246;19;129105;-34
2022/01/04 07:51:18;;;;;;;21.17;2.67;;;;;;;20.73;59.86;97533.88;7316289;19;130253;-33
2022/01/04 07:53:43;;;;;;;14.50;1.90;;;;;;;20.70;59.98;97536.88;7317640;19;130575;-34
2022/01/04 07:56:08;;;;;;;14.40;1.67;;;;;;;20.68;60.32;97539.66;7317503;19;129599;-34
2022/01/04 07:58:33;;;;;;;43.92;7.57;;;;;;;20.64;60.17;97530.56;7302838;19;154131;-40
2022/01/04 08:01:00;;;;;;;6.72;1.08;;;;;;;20.64;60.21;97527.97;7312425;19;159018;-38
2022/01/04 08:03:25;;;;;;;48.50;7.13;;;;;;;20.62;60.25;97518.69;7304842;19;159365;-39
2022/01/04 08:05:50;;;;;;;17.90;2.85;;;;;;;20.54;60.26;97511.78;7309224;19;153721;-38
2022/01/04 08:08:16;;;;;;;16.75;2.35;;;;;;;20.59;60.72;97525.09;7315182;19;129398;-38
2022/01/04 08:10:42;;;;;;;69.13;10.95;;;;;;;20.59;60.56;97513.84;7304235;19;130633;-40
2022/01/04 08:13:07;;;;;;;36.40;6.53;;;;;;;20.59;60.42;97514.66;7313675;19;130440;-40
2022/01/04 08:15:32;;;;;;;16.90;2.25;;;;;;;20.50;60.89;97497.47;7310376;19;130884;-37
2022/01/04 08:17:58;;;;;;;18.23;2.40;;;;;;;20.58;60.53;97501.78;7313192;19;153640;-39
2022/01/04 08:20:23;;;;;;;10.35;1.42;;;;;;;20.59;60.33;97508.63;7309650;19;129069;-39
2022/01/04 08:22:49;;;;;;;19.30;3.10;;;;;;;20.60;60.40;97502.41;7313369;19;131486;-37
2022/01/04 08:25:14;;;;;;;16.30;2.25;;;;;;;20.60;60.83;97507.63;7309279;19;154611;-38
2022/01/04 08:27:40;;;;;;;11.68;1.58;;;;;;;20.58;60.48;97507.00;7315127;19;136600;-39
2022/01/04 08:30:08;;;;;;;6.18;0.80;;;;;;;20.58;60.62;97501.78;7314355;19;130266;-37
2022/01/04 08:32:34;;;;;;;13.32;1.70;;;;;;;20.57;60.48;97487.13;7315172;19;129633;-32
2022/01/04 08:34:59;;;;;;;9.07;1.33;;;;;;;20.59;60.90;97488.53;7316627;19;128797;-40
2022/01/04 08:37:26;;;;;;;22.63;3.28;;;;;;;20.59;60.96;97480.72;7314725;19;129101;-36
2022/01/04 08:39:51;;;;;;;13.32;2.03;;;;;;;20.61;60.76;97481.34;7303894;19;130378;-35
2022/01/04 08:42:17;;;;;;;15.40;2.08;;;;;;;20.60;60.93;97477.13;7312941;19;158781;-37
2022/01/04 08:44:42;;;;;;;10.13;1.48;;;;;;;20.63;60.97;97466.31;7311074;19;129307;-33
2022/01/04 08:47:11;;;;;;;7.45;1.02;;;;;;;20.61;60.95;97464.84;7311338;19;153028;-39
2022/01/04 08:49:38;;;;;;;13.15;1.80;;;;;;;20.63;60.51;97457.66;7306887;19;130755;-36
2022/01/04 08:52:05;;;;;;;12.15;1.73;;;;;;;20.64;61.12;97454.06;7314778;19;130363;-39
2022/01/04 08:54:31;;;;;;;12.98;1.80;;;;;;;20.64;60.91;97449.63;7308842;19;129062;-37
2022/01/04 08:56:56;;;;;;;10.55;1.60;;;;;;;20.69;60.58;97451.72;7316115;19;129420;-39
2022/01/04 08:59:23;;;;;;;13.20;1.77;;;;;;;20.63;60.89;97439.38;7308627;19;139292;-39
2022/01/04 09:01:48;;;;;;;14.23;2.10;;;;;;;20.63;60.33;97448.03;7314731;19;130401;-36
2022/01/04 09:04:14;;;;;;;13.23;1.88;;;;;;;20.63;60.83;97447.22;7307126;19;130323;-40
2022/01/04 09:06:39;;;;;;;16.48;2.38;;;;;;;20.60;60.45;97437.97;7309129;19;154001;-38
2022/01/04 09:09:05;;;;;;;11.40;1.45;;;;;;;20.64;60.75;97433.97;7313509;19;129439;-34
2022/01/04 09:11:30;;;;;;;10.82;1.40;;;;;;;20.62;60.47;97435.97;7305474;19;142093;-37
2022/01/04 09:14:11;;;;;;;26.30;4.13;;;;;;;20.66;61.27;97433.78;7313871;19;129658;-35
2022/01/04 09:19:24;;;;;;;13.23;1.95;;;;;;;20.68;61.25;97418.75;7312540;19;129619;-34
2022/01/04 09:21:49;;;;;;;11.60;1.88;;;;;;;20.69;60.36;97415.16;7305996;19;133105;-34
2022/01/04 09:24:15;;;;;;;11.38;1.60;;;;;;;20.72;60.90;97407.72;7306399;19;130718;-36
2022/01/04 09:26:40;;;;;;;75.43;12.73;;;;;;;20.74;60.45;97410.19;7304816;19;129502;-33
2022/01/04 09:29:05;;;;;;;20.88;2.95;;;;;;;20.71;60.71;97407.91;7307194;19;145927;-30
2022/01/04 09:31:31;;;;;;;67.32;8.52;;;;;;;20.69;60.17;97404.72;7305310;19;129872;-37
2022/01/04 09:33:58;;;;;;;21.80;3.70;;;;;;;20.72;60.89;97409.56;7307900;19;146664;-35
2022/01/04 09:36:25;;;;;;;43.17;6.78;;;;;;;20.68;60.10;97409.13;7309861;19;129182;-41
2022/01/04 09:38:52;;;;;;;86.13;14.13;;;;;;;20.64;60.98;97399.25;7297151;19;129911;-43
2022/01/04 09:41:17;;;;;;;15.70;2.13;;;;;;;20.66;60.82;97390.22;7312694;19;129933;-36
2022/01/04 09:43:42;;;;;;;18.60;2.50;;;;;;;20.65;60.31;97382.56;7305947;19;135280;-40
2022/01/04 09:46:07;;;;;;;11.93;1.75;;;;;;;20.63;60.39;97371.50;7311901;19;154454;-31
2022/01/04 09:48:33;;;;;;;14.05;1.88;;;;;;;20.66;60.51;97365.91;7310553;19;158338;-34
2022/01/04 09:50:59;;;;;;;11.00;1.63;;;;;;;20.64;60.50;97360.06;7302190;19;130620;-33
2022/01/04 09:53:25;;;;;;;14.20;1.90;;;;;;;20.67;60.53;97351.88;7302637;19;129611;-34
2022/01/04 09:55:53;;;;;;;18.00;2.50;;;;;;;20.64;60.56;97354.84;7314010;19;129074;-40
2022/01/04 09:58:20;;;;;;;51.58;8.43;;;;;;;20.64;60.99;97333.97;7301015;19;129724;-36
2022/01/04 10:00:46;;;;;;;14.75;2.13;;;;;;;20.64;60.34;97333.97;7309162;19;130473;-41
2022/01/04 10:03:25;;;;;;;50.67;8.40;;;;;;;20.62;60.71;97325.50;7306598;19;129442;-41
2022/01/04 10:06:07;;;;;;;14.52;2.08;;;;;;;20.64;61.15;97315.69;7308299;19;129303;-33
2022/01/04 10:08:32;;;;;;;39.35;6.30;;;;;;;20.64;60.84;97310.47;7308058;19;130717;-36
2022/01/04 10:11:08;;;;;;;14.85;2.22;;;;;;;20.65;61.41;97315.50;7305003;19;130192;-39
2022/01/04 10:13:34;;;;;;;6.28;0.85;;;;;;;20.66;60.36;97309.28;7312829;19;129778;-33
2022/01/04 10:15:59;;;;;;;14.05;2.03;;;;;;;20.63;60.26;97295.78;7302700;19;129082;-30
2022/01/04 10:18:28;;;;;;;12.37;1.63;;;;;;;20.61;60.54;97282.09;7311116;19;151655;-34
2022/01/04 10:21:02;;;;;;;18.98;2.78;;;;;;;20.62;60.56;97268.09;7299930;19;130993;-36
2022/01/04 10:23:28;;;;;;;12.57;1.90;;;;;;;20.59;60.34;97258.81;7310907;19;129327;-34
2022/01/04 10:26:03;;;;;;;14.88;2.55;;;;;;;20.60;60.93;97264.84;7310783;19;129103;-30
2022/01/04 10:28:31;;;;;;;21.85;3.33;;;;;;;20.60;60.61;97259.63;7311772;19;129638;-37
2022/01/04 10:31:02;;;;;;;38.13;6.47;;;;;;;20.57;60.74;97266.03;7300311;19;131526;-38
2022/01/04 10:33:28;;;;;;;72.30;12.10;;;;;;;20.58;61.00;97282.50;7308305;19;129122;-33
2022/01/04 10:35:55;;;;;;;67.97;11.20;;;;;;;20.57;61.15;97270.44;7302083;19;129215;-34
2022/01/04 10:38:29;;;;;;;21.80;3.05;;;;;;;20.55;60.92;97259.38;7309293;19;130120;-35
2022/01/04 10:41:01;;;;;;;61.13;10.25;;;;;;;20.56;60.72;97258.41;7298823;19;129935;-38
2022/01/04 10:43:32;;;;;;;10.88;1.52;;;;;;;20.54;60.90;97252.56;7310407;19;129575;-40
2022/01/04 10:45:58;;;;;;;3.25;0.65;;;;;;;20.55;61.10;97251.56;7311634;19;129769;-34
2022/01/04 10:48:41;;;;;;;10.43;1.48;;;;;;;20.56;62.19;97253.19;7312571;19;130350;-32
2022/01/04 10:51:14;;;;;;;63.55;10.68;;;;;;;20.55;60.65;97241.13;7306408;19;130346;-33
2022/01/04 10:53:48;;;;;;;14.75;2.17;;;;;;;20.53;60.57;97238.69;7307321;19;129485;-38
2022/01/04 10:56:15;;;;;;;14.90;1.95;;;;;;;20.45;60.97;97217.97;7311275;19;129187;-34
2022/01/04 10:58:46;;;;;;;14.88;2.03;;;;;;;20.53;61.06;97232.66;7304940;19;131254;-33
2022/01/04 11:01:17;;;;;;;17.90;2.47;;;;;;;20.51;61.13;97224.25;7310282;19;130412;-34
2022/01/04 11:03:45;;;;;;;14.05;2.10;;;;;;;20.51;60.97;97225.03;7309870;19;129228;-36
2022/01/04 11:06:18;;;;;;;15.05;1.95;;;;;;;20.51;61.27;97222.41;7311307;19;128977;-37
2022/01/04 11:08:44;;;;;;;16.48;2.13;;;;;;;20.51;60.89;97216.41;7310591;19;129544;-37
2022/01/04 11:11:09;;;;;;;8.48;1.45;;;;;;;20.52;60.87;97213.59;7318888;19;130063;-36
2022/01/04 11:13:35;;;;;;;14.23;1.98;;;;;;;20.54;61.20;97210.81;7325387;19;129060;-35
2022/01/04 11:16:01;;;;;;;12.80;1.95;;;;;;;20.55;61.10;97207.19;7325513;19;129158;-37
2022/01/04 11:18:28;;;;;;;15.32;2.08;;;;;;;20.45;60.50;97193.66;7325207;19;130720;-36
2022/01/04 11:20:54;;;;;;;16.58;2.17;;;;;;;20.53;61.11;97206.56;7322476;19;129603;-33
2022/01/04 11:23:27;;;;;;;14.57;2.03;;;;;;;20.55;61.17;97194.13;7325236;19;128968;-35
2022/01/04 11:25:54;;;;;;;7.53;1.35;;;;;;;20.56;60.57;97200.97;7324648;19;129154;-32